Time;durP1;ratioP1;P1;durP2;ratioP2;P2;SDS_P1;SDS_P2;PMS_P1;PMS_P2;Temp;Humidity;BMP_temperature;BMP_pressure;BME280_temperature;BME280_humidity;BME280_pressure;Samples;Min_cycle;Max_cycle;Signal;HPM_P1;HPM_P2
2022/06/30 00:00:40;;;;;;;3.00;2.00;;;18.20;99.90;;;;;;5086417;28;20055;-48
2022/06/30 00:03:06;;;;;;;2.10;1.55;;;18.20;99.90;;;;;;5087706;28;20105;-50
2022/06/30 00:05:31;;;;;;;1.73;1.63;;;18.20;99.90;;;;;;5085266;28;20454;-50
2022/06/30 00:07:57;;;;;;;2.17;1.75;;;18.20;99.90;;;;;;5086663;28;20061;-51
2022/06/30 00:10:22;;;;;;;1.80;1.70;;;18.10;99.90;;;;;;5083196;28;20496;-51
2022/06/30 00:12:48;;;;;;;2.83;1.70;;;18.10;99.90;;;;;;5087497;28;20552;-51
2022/06/30 00:15:14;;;;;;;3.20;1.98;;;18.10;99.90;;;;;;5086642;28;20394;-48
2022/06/30 00:17:39;;;;;;;3.50;1.60;;;18.10;99.90;;;;;;5090078;28;20036;-49
2022/06/30 00:20:06;;;;;;;1.60;1.50;;;18.00;99.90;;;;;;5091456;28;20107;-49
2022/06/30 00:22:31;;;;;;;2.10;1.67;;;17.90;99.90;;;;;;5088778;28;20023;-51
2022/06/30 00:24:57;;;;;;;3.85;2.10;;;17.90;99.90;;;;;;5089021;28;20032;-50
2022/06/30 00:27:22;;;;;;;1.88;1.77;;;17.90;99.90;;;;;;5082508;28;20156;-50
2022/06/30 00:29:48;;;;;;;3.13;1.98;;;17.90;99.90;;;;;;5089151;28;20063;-48
2022/06/30 00:32:14;;;;;;;2.28;1.58;;;17.80;99.90;;;;;;5089166;28;20024;-50
2022/06/30 00:34:39;;;;;;;4.40;1.95;;;17.90;99.90;;;;;;5090619;28;20444;-48
2022/06/30 00:37:05;;;;;;;2.03;1.90;;;17.80;99.90;;;;;;5081956;28;20028;-47
2022/06/30 00:39:30;;;;;;;1.70;1.60;;;17.70;99.90;;;;;;5080110;28;20027;-47
2022/06/30 00:41:56;;;;;;;2.97;1.73;;;17.70;99.90;;;;;;5089553;28;20078;-49
2022/06/30 00:44:22;;;;;;;2.45;1.75;;;17.70;99.90;;;;;;5086403;28;20061;-49
2022/06/30 00:46:48;;;;;;;2.47;2.03;;;17.70;99.90;;;;;;5090885;28;20047;-47
2022/06/30 00:49:16;;;;;;;2.67;1.63;;;17.70;99.90;;;;;;5081534;28;20032;-48
2022/06/30 00:51:41;;;;;;;1.88;1.77;;;17.70;99.90;;;;;;5087049;28;20127;-50
2022/06/30 00:54:07;;;;;;;2.70;1.83;;;17.70;99.90;;;;;;5089242;28;20035;-50
2022/06/30 00:56:40;;;;;;;1.85;1.75;;;17.60;99.90;;;;;;5088980;28;20522;-50
2022/06/30 00:59:07;;;;;;;3.47;1.88;;;17.60;99.90;;;;;;5082468;28;20048;-47
2022/06/30 01:01:32;;;;;;;2.08;1.50;;;17.50;99.90;;;;;;5087223;28;20043;-50
2022/06/30 01:03:59;;;;;;;2.30;2.10;;;17.50;99.90;;;;;;5088902;28;20028;-49
2022/06/30 01:06:26;;;;;;;2.30;1.90;;;17.40;99.90;;;;;;5086709;28;20039;-48
2022/06/30 01:08:52;;;;;;;2.42;1.85;;;17.40;99.90;;;;;;5089740;28;20127;-50
2022/06/30 01:14:03;;;;;;;3.17;1.75;;;17.30;99.90;;;;;;5086606;28;20073;-47
2022/06/30 01:16:29;;;;;;;2.08;1.98;;;17.30;99.90;;;;;;5082600;28;20033;-48
2022/06/30 01:18:55;;;;;;;2.20;2.00;;;17.30;99.90;;;;;;5090338;28;20051;-53
2022/06/30 01:21:20;;;;;;;2.20;2.00;;;17.30;99.90;;;;;;5090564;28;20074;-51
2022/06/30 01:23:46;;;;;;;2.20;2.10;;;17.30;99.90;;;;;;5087686;28;20569;-48
2022/06/30 01:26:12;;;;;;;2.38;2.13;;;17.30;99.90;;;;;;5089926;28;20433;-48
2022/06/30 01:28:38;;;;;;;2.53;2.33;;;17.20;99.90;;;;;;5090411;28;20086;-47
2022/06/30 01:31:03;;;;;;;3.10;2.42;;;17.20;99.90;;;;;;5089863;28;20077;-52
2022/06/30 01:33:29;;;;;;;2.25;1.80;;;17.10;99.90;;;;;;5083991;28;20024;-49
2022/06/30 01:35:56;;;;;;;1.67;1.58;;;17.00;99.90;;;;;;5089779;28;20099;-49
2022/06/30 01:38:22;;;;;;;2.67;1.90;;;16.90;99.90;;;;;;5084170;28;20419;-51
2022/06/30 01:40:48;;;;;;;1.88;1.70;;;16.90;99.90;;;;;;5081762;28;20548;-47
2022/06/30 01:43:13;;;;;;;2.33;2.03;;;16.90;99.90;;;;;;5087497;28;20032;-47
2022/06/30 01:45:40;;;;;;;2.38;2.15;;;16.80;99.90;;;;;;5083680;28;20032;-47
2022/06/30 01:48:07;;;;;;;4.43;1.90;;;16.80;99.90;;;;;;5086668;28;20040;-47
2022/06/30 01:50:34;;;;;;;1.70;1.60;;;16.80;99.90;;;;;;5083466;28;20032;-47
2022/06/30 01:53:00;;;;;;;4.43;2.33;;;16.70;99.90;;;;;;5085195;28;20123;-48
2022/06/30 01:55:26;;;;;;;3.03;1.95;;;16.70;99.90;;;;;;5067079;28;20020;-46
2022/06/30 01:57:52;;;;;;;2.13;1.85;;;16.60;99.90;;;;;;5070586;28;20111;-48
2022/06/30 02:00:21;;;;;;;2.88;1.95;;;16.60;99.90;;;;;;5064968;28;20024;-47
2022/06/30 02:02:48;;;;;;;2.97;1.77;;;16.60;99.90;;;;;;5078853;28;20063;-48
2022/06/30 02:05:14;;;;;;;2.50;1.95;;;16.50;99.90;;;;;;5082276;28;20024;-47
2022/06/30 02:07:40;;;;;;;2.95;1.75;;;16.50;99.90;;;;;;5090029;28;20042;-48
2022/06/30 02:10:15;;;;;;;4.38;1.98;;;16.40;99.90;;;;;;5083332;28;20032;-47
2022/06/30 02:12:45;;;;;;;2.50;2.00;;;16.40;99.90;;;;;;5069369;28;20520;-48
2022/06/30 02:15:11;;;;;;;2.47;2.08;;;16.40;99.90;;;;;;5085867;28;20024;-46
2022/06/30 02:17:38;;;;;;;2.40;2.20;;;16.40;99.90;;;;;;5079777;28;20034;-48
2022/06/30 02:20:07;;;;;;;2.33;2.15;;;16.30;99.90;;;;;;5081266;28;20024;-49
2022/06/30 02:22:33;;;;;;;2.50;2.13;;;16.30;99.90;;;;;;5088663;28;20028;-48
2022/06/30 02:24:58;;;;;;;2.83;2.28;;;16.30;99.90;;;;;;5079986;28;20082;-51
2022/06/30 02:27:24;;;;;;;3.50;2.20;;;16.20;99.90;;;;;;5089027;28;20036;-51
2022/06/30 02:29:54;;;;;;;3.67;2.13;;;16.20;99.90;;;;;;5086985;28;20016;-46
2022/06/30 02:32:21;;;;;;;2.30;2.10;;;16.20;99.90;;;;;;5085563;28;20028;-49
2022/06/30 02:34:50;;;;;;;4.03;2.67;;;16.20;99.90;;;;;;5085958;28;20020;-51
2022/06/30 02:37:15;;;;;;;2.63;2.40;;;16.20;99.90;;;;;;5083453;28;20570;-50
2022/06/30 02:39:41;;;;;;;3.80;2.80;;;16.20;99.90;;;;;;5089311;28;20081;-46
2022/06/30 02:42:07;;;;;;;4.00;2.88;;;16.10;99.90;;;;;;5069902;28;20035;-48
2022/06/30 02:44:33;;;;;;;3.03;2.72;;;16.10;99.90;;;;;;5085913;28;20033;-49
2022/06/30 02:46:58;;;;;;;5.28;2.92;;;16.10;99.90;;;;;;5078382;28;20416;-46
2022/06/30 02:49:24;;;;;;;2.58;2.38;;;16.10;99.90;;;;;;5085243;28;20375;-45
2022/06/30 02:51:50;;;;;;;3.15;2.90;;;16.00;99.90;;;;;;5087175;28;20412;-47
2022/06/30 02:54:16;;;;;;;3.22;2.90;;;15.90;99.90;;;;;;5083232;28;20066;-49
2022/06/30 02:56:42;;;;;;;4.90;2.90;;;15.90;99.90;;;;;;5095737;28;20023;-46
2022/06/30 02:59:08;;;;;;;3.80;2.97;;;15.90;99.90;;;;;;5087276;28;20131;-48
2022/06/30 03:01:34;;;;;;;3.40;3.10;;;15.80;99.90;;;;;;5085765;28;20052;-47
2022/06/30 03:04:02;;;;;;;3.63;3.25;;;15.80;99.90;;;;;;5087985;28;20063;-48
2022/06/30 03:06:28;;;;;;;3.28;3.00;;;15.70;99.90;;;;;;5084759;28;20036;-48
2022/06/30 03:08:55;;;;;;;3.08;2.30;;;15.80;99.90;;;;;;5079802;28;20078;-46
2022/06/30 03:11:22;;;;;;;3.33;2.90;;;15.70;99.90;;;;;;5081132;28;20035;-48
2022/06/30 03:13:47;;;;;;;3.08;2.75;;;15.80;99.90;;;;;;5086655;28;20059;-49
2022/06/30 03:16:13;;;;;;;4.47;3.10;;;15.80;99.90;;;;;;5078740;28;20056;-46
2022/06/30 03:18:39;;;;;;;6.95;3.00;;;15.80;99.90;;;;;;5086660;28;20024;-48
2022/06/30 03:21:06;;;;;;;4.28;3.28;;;15.70;99.90;;;;;;5079909;28;20062;-48
2022/06/30 03:23:31;;;;;;;3.13;2.65;;;15.80;99.90;;;;;;5088043;28;20024;-49
2022/06/30 03:25:57;;;;;;;4.25;2.97;;;15.80;99.90;;;;;;5080980;28;20647;-47
2022/06/30 03:28:23;;;;;;;3.10;2.90;;;15.80;99.90;;;;;;5084363;28;20028;-49
2022/06/30 03:30:48;;;;;;;4.80;3.50;;;15.80;99.90;;;;;;5067548;28;20489;-46
2022/06/30 03:33:15;;;;;;;4.40;3.30;;;15.80;99.90;;;;;;5076440;28;20063;-46
2022/06/30 03:35:41;;;;;;;4.30;3.08;;;15.80;99.90;;;;;;5081087;28;20118;-46
2022/06/30 03:38:06;;;;;;;3.35;3.13;;;15.90;99.90;;;;;;5082271;28;20099;-47
2022/06/30 03:40:32;;;;;;;3.00;2.67;;;15.90;99.90;;;;;;5084705;28;20103;-47
2022/06/30 03:42:58;;;;;;;3.83;2.80;;;15.90;99.90;;;;;;5087023;28;20028;-45
2022/06/30 03:45:24;;;;;;;5.15;3.55;;;15.90;99.90;;;;;;5078886;28;20517;-47
2022/06/30 03:47:50;;;;;;;4.97;3.25;;;15.90;99.90;;;;;;5085816;28;20018;-49
2022/06/30 03:50:15;;;;;;;3.50;3.17;;;15.90;99.90;;;;;;5090082;28;20095;-47
2022/06/30 03:52:41;;;;;;;5.65;2.90;;;16.00;99.90;;;;;;5085014;28;20032;-46
2022/06/30 03:55:07;;;;;;;3.38;3.08;;;16.00;99.90;;;;;;5086977;28;20012;-46
2022/06/30 03:57:33;;;;;;;3.03;2.83;;;16.00;99.90;;;;;;5086265;28;20571;-46
2022/06/30 03:59:58;;;;;;;4.03;2.85;;;16.00;99.90;;;;;;5079973;28;20040;-47
2022/06/30 04:02:24;;;;;;;5.25;3.33;;;16.00;99.90;;;;;;5085334;28;20145;-47
2022/06/30 04:04:49;;;;;;;3.20;3.00;;;16.00;99.90;;;;;;5091969;28;20032;-45
2022/06/30 04:07:15;;;;;;;4.90;3.45;;;16.10;99.90;;;;;;5089342;28;20028;-47
2022/06/30 04:09:40;;;;;;;4.32;3.67;;;16.10;99.90;;;;;;5088484;28;20381;-49
2022/06/30 04:12:06;;;;;;;3.30;3.00;;;16.10;99.90;;;;;;5079325;28;20063;-48
2022/06/30 04:14:31;;;;;;;5.25;3.53;;;16.10;99.90;;;;;;5086618;28;20031;-45
2022/06/30 04:16:57;;;;;;;4.00;3.70;;;16.10;99.90;;;;;;5085612;28;20107;-48
2022/06/30 04:19:23;;;;;;;3.45;3.15;;;16.20;99.90;;;;;;5091870;28;20762;-47
2022/06/30 04:21:49;;;;;;;4.85;3.20;;;16.20;99.90;;;;;;5087501;28;20146;-47
2022/06/30 04:24:15;;;;;;;3.50;3.20;;;16.20;99.90;;;;;;5088903;28;20112;-47
2022/06/30 04:26:40;;;;;;;3.42;3.13;;;16.30;99.90;;;;;;5090782;28;20106;-46
2022/06/30 04:29:06;;;;;;;5.40;3.40;;;16.30;99.90;;;;;;5088266;28;20024;-46
2022/06/30 04:34:16;;;;;;;4.85;3.42;;;16.40;99.90;;;;;;5090183;28;20398;-50
2022/06/30 04:36:41;;;;;;;3.42;3.13;;;16.50;99.90;;;;;;5091178;28;20028;-48
2022/06/30 04:39:07;;;;;;;3.58;3.22;;;16.60;99.90;;;;;;5088935;28;20115;-48
2022/06/30 04:41:32;;;;;;;3.63;3.33;;;16.60;99.90;;;;;;5091240;28;20024;-50
2022/06/30 04:43:59;;;;;;;5.30;3.72;;;16.70;99.90;;;;;;5088744;28;20036;-51
2022/06/30 04:46:26;;;;;;;4.63;3.53;;;16.70;99.90;;;;;;5086899;28;20102;-50
2022/06/30 04:48:52;;;;;;;4.72;4.10;;;16.80;99.90;;;;;;5093045;28;20714;-49
2022/06/30 04:51:18;;;;;;;4.88;3.60;;;16.80;99.90;;;;;;5075749;28;20024;-48
2022/06/30 04:53:44;;;;;;;4.85;3.67;;;16.80;99.90;;;;;;5093683;28;20035;-48
2022/06/30 04:56:10;;;;;;;3.85;3.22;;;16.90;99.90;;;;;;5087991;28;20020;-47
2022/06/30 04:58:37;;;;;;;3.60;3.30;;;16.90;99.90;;;;;;5065703;28;20589;-49
2022/06/30 05:01:03;;;;;;;4.07;3.00;;;16.90;99.90;;;;;;5089308;28;20039;-48
2022/06/30 05:03:29;;;;;;;3.35;2.90;;;17.00;99.90;;;;;;5086755;28;20024;-48
2022/06/30 05:05:55;;;;;;;3.35;3.15;;;17.00;99.90;;;;;;5070964;28;20031;-47
2022/06/30 05:08:21;;;;;;;3.90;3.58;;;17.00;99.90;;;;;;5083134;28;20115;-48
2022/06/30 05:10:47;;;;;;;3.38;3.17;;;17.10;99.90;;;;;;5087663;28;20028;-46
2022/06/30 05:13:12;;;;;;;5.18;3.75;;;17.10;99.90;;;;;;5089124;28;20024;-49
2022/06/30 05:15:38;;;;;;;4.55;3.65;;;17.10;99.90;;;;;;5087377;28;20016;-49
2022/06/30 05:18:04;;;;;;;4.43;3.80;;;17.20;99.90;;;;;;5088997;28;20016;-46
2022/06/30 05:20:31;;;;;;;3.25;3.05;;;17.30;99.90;;;;;;5071144;28;20031;-49
2022/06/30 05:22:57;;;;;;;4.05;3.28;;;17.30;99.90;;;;;;5089493;28;20035;-49
2022/06/30 05:28:07;;;;;;;4.50;3.60;;;17.40;99.90;;;;;;5084966;28;20027;-47
2022/06/30 05:30:32;;;;;;;5.18;3.42;;;17.50;99.90;;;;;;5084748;28;20465;-49
2022/06/30 05:32:58;;;;;;;4.45;3.28;;;17.60;99.90;;;;;;5319873;23;20040;-49
2022/06/30 05:35:23;;;;;;;6.28;3.92;;;17.70;99.90;;;;;;5066183;28;20017;-54
2022/06/30 05:37:49;;;;;;;4.25;3.65;;;17.80;99.90;;;;;;5065971;28;20016;-53
2022/06/30 05:40:14;;;;;;;5.72;4.32;;;17.90;99.90;;;;;;5068727;28;20031;-54
2022/06/30 05:42:40;;;;;;;5.00;3.65;;;18.00;99.90;;;;;;5056428;28;20470;-50
2022/06/30 05:45:06;;;;;;;4.07;3.70;;;18.10;99.90;;;;;;5067320;28;20048;-52
2022/06/30 05:47:32;;;;;;;5.07;3.60;;;18.20;99.90;;;;;;5056968;28;20028;-50
2022/06/30 05:49:57;;;;;;;6.10;3.80;;;18.30;99.90;;;;;;5066974;28;20036;-54
2022/06/30 05:52:23;;;;;;;3.85;3.55;;;18.40;99.90;;;;;;5055882;28;20698;-52
2022/06/30 05:54:49;;;;;;;3.97;3.58;;;18.60;99.90;;;;;;5079373;28;20120;-50
2022/06/30 05:57:14;;;;;;;3.72;3.38;;;18.70;99.90;;;;;;5064262;28;20028;-51
2022/06/30 05:59:40;;;;;;;3.50;3.20;;;18.90;99.90;;;;;;5060289;28;20021;-52
2022/06/30 06:02:06;;;;;;;5.20;3.63;;;18.90;99.90;;;;;;5068221;28;20033;-54
2022/06/30 06:04:32;;;;;;;7.50;3.72;;;18.90;99.90;;;;;;5066001;28;20028;-53
2022/06/30 06:06:57;;;;;;;6.90;3.67;;;19.00;99.90;;;;;;5068183;28;20147;-54
2022/06/30 06:09:23;;;;;;;3.40;3.10;;;18.90;99.90;;;;;;5060581;28;20106;-51
2022/06/30 06:11:48;;;;;;;5.13;3.15;;;19.00;99.90;;;;;;5067594;28;20390;-52
2022/06/30 06:14:14;;;;;;;3.83;3.40;;;19.00;99.90;;;;;;5064482;28;20021;-51
2022/06/30 06:16:40;;;;;;;5.90;3.15;;;19.20;99.90;;;;;;5066183;28;20040;-51
2022/06/30 06:19:05;;;;;;;5.68;3.78;;;19.30;99.90;;;;;;5051023;28;20520;-51
2022/06/30 06:21:32;;;;;;;3.28;3.00;;;19.40;99.90;;;;;;5065144;28;20029;-54
2022/06/30 06:23:57;;;;;;;3.80;3.45;;;19.50;99.90;;;;;;5067658;28;20031;-51
2022/06/30 06:26:23;;;;;;;3.35;3.13;;;19.60;99.90;;;;;;5064352;28;20020;-51
2022/06/30 06:29:08;;;;;;;4.93;3.40;;;19.70;99.90;;;;;;5064347;28;20071;-55
2022/06/30 06:31:37;;;;;;;5.45;3.22;;;19.90;99.90;;;;;;5051468;28;20032;-51
2022/06/30 06:34:03;;;;;;;3.60;2.90;;;20.10;99.90;;;;;;5070540;28;20052;-54
2022/06/30 06:36:29;;;;;;;3.38;2.72;;;20.30;99.90;;;;;;5041219;28;20037;-53
2022/06/30 06:38:55;;;;;;;3.40;3.10;;;20.50;99.90;;;;;;5045161;28;20632;-54
2022/06/30 06:41:21;;;;;;;5.78;2.75;;;20.80;99.90;;;;;;5068925;28;20099;-51
2022/06/30 06:43:49;;;;;;;3.60;3.00;;;21.00;99.90;;;;;;5063489;28;20020;-52
2022/06/30 06:46:15;;;;;;;4.72;2.95;;;21.20;99.90;;;;;;5065721;28;20028;-53
2022/06/30 06:48:41;;;;;;;3.17;2.83;;;21.40;99.90;;;;;;5044582;28;20170;-53
2022/06/30 06:51:07;;;;;;;4.43;3.08;;;21.60;99.90;;;;;;5068283;28;20486;-53
2022/06/30 06:53:32;;;;;;;6.90;3.42;;;21.90;99.90;;;;;;5068619;28;20070;-55
2022/06/30 06:55:58;;;;;;;3.30;2.95;;;22.00;99.90;;;;;;5067356;28;20569;-51
2022/06/30 06:58:23;;;;;;;3.13;2.75;;;22.10;99.90;;;;;;5077297;28;20020;-54
2022/06/30 07:00:49;;;;;;;3.35;2.58;;;22.20;99.90;;;;;;5077230;28;20483;-52
2022/06/30 07:03:15;;;;;;;4.45;2.92;;;22.30;99.90;;;;;;5061941;28;20222;-53
2022/06/30 07:05:41;;;;;;;3.20;2.90;;;22.40;99.90;;;;;;5058784;28;20032;-52
2022/06/30 07:08:06;;;;;;;3.38;3.08;;;22.40;99.90;;;;;;5073577;28;20029;-52
2022/06/30 07:10:32;;;;;;;3.40;3.10;;;22.50;99.90;;;;;;5064373;28;20028;-53
2022/06/30 07:12:57;;;;;;;4.13;2.85;;;22.60;99.90;;;;;;5042263;28;20025;-55
2022/06/30 07:15:23;;;;;;;2.85;2.22;;;22.70;99.90;;;;;;5065524;28;20048;-55
2022/06/30 07:17:49;;;;;;;4.75;2.55;;;22.70;99.90;;;;;;5066707;28;20024;-53
2022/06/30 07:20:15;;;;;;;3.38;2.60;;;22.80;99.90;;;;;;5066515;28;20510;-55
2022/06/30 07:22:40;;;;;;;3.92;2.92;;;23.00;99.90;;;;;;5061242;28;20029;-53
2022/06/30 07:25:07;;;;;;;4.50;2.80;;;23.20;99.90;;;;;;5070582;28;20024;-55
2022/06/30 07:27:33;;;;;;;5.35;3.13;;;23.30;99.90;;;;;;5075528;28;20028;-50
2022/06/30 07:29:58;;;;;;;6.03;3.13;;;23.40;99.90;;;;;;5071476;28;20055;-54
2022/06/30 07:32:24;;;;;;;3.05;2.75;;;23.60;99.90;;;;;;5067334;28;20025;-54
2022/06/30 07:34:50;;;;;;;3.45;2.50;;;23.60;99.90;;;;;;5067549;28;20059;-53
2022/06/30 07:37:16;;;;;;;4.90;2.75;;;23.80;99.90;;;;;;5054677;28;20052;-53
2022/06/30 07:39:41;;;;;;;3.92;2.25;;;24.00;99.90;;;;;;5062791;28;20020;-52
2022/06/30 07:42:07;;;;;;;4.55;2.72;;;24.20;99.90;;;;;;5069738;28;20037;-50
2022/06/30 07:44:32;;;;;;;3.85;2.58;;;24.30;99.90;;;;;;5067483;28;20025;-49
2022/06/30 07:46:58;;;;;;;4.53;2.70;;;24.40;99.90;;;;;;5046533;28;20037;-52
2022/06/30 07:49:24;;;;;;;2.40;2.20;;;24.50;99.90;;;;;;5068885;28;20021;-53
2022/06/30 07:51:50;;;;;;;4.95;2.63;;;24.70;99.90;;;;;;5071045;28;20052;-52
2022/06/30 07:54:15;;;;;;;3.70;2.88;;;25.00;99.90;;;;;;5060048;28;20025;-53
2022/06/30 07:56:41;;;;;;;2.95;2.63;;;25.10;99.90;;;;;;5071379;28;20388;-54
2022/06/30 07:59:07;;;;;;;3.83;2.92;;;25.20;99.90;;;;;;5069361;28;20074;-52
2022/06/30 08:01:33;;;;;;;3.22;2.78;;;25.20;99.90;;;;;;5071516;28;20020;-54
2022/06/30 08:03:58;;;;;;;5.10;2.95;;;25.30;99.90;;;;;;5068043;28;20389;-52
2022/06/30 08:06:24;;;;;;;5.25;2.70;;;25.30;99.90;;;;;;5070614;28;20031;-54
2022/06/30 08:08:51;;;;;;;2.72;2.33;;;25.50;99.90;;;;;;5059352;28;20028;-52
2022/06/30 08:11:18;;;;;;;2.67;2.47;;;25.80;99.90;;;;;;5083777;28;20106;-51
2022/06/30 08:13:43;;;;;;;3.65;2.20;;;26.00;99.90;;;;;;5065912;28;20048;-50
2022/06/30 08:16:11;;;;;;;4.68;2.42;;;26.20;99.50;;;;;;5083300;28;20427;-51
2022/06/30 08:18:37;;;;;;;2.42;2.22;;;26.40;99.30;;;;;;5083714;28;20039;-50
2022/06/30 08:21:03;;;;;;;2.72;2.47;;;26.60;99.00;;;;;;5067682;28;20024;-50
2022/06/30 08:23:29;;;;;;;3.45;2.53;;;26.70;98.00;;;;;;5071059;28;20402;-51
2022/06/30 08:25:55;;;;;;;4.80;2.78;;;26.70;97.40;;;;;;5066785;28;20025;-50
2022/06/30 08:28:22;;;;;;;2.55;2.35;;;26.50;97.50;;;;;;5069055;28;20179;-49
2022/06/30 08:30:50;;;;;;;2.75;2.53;;;26.60;97.40;;;;;;5065751;28;20029;-50
2022/06/30 08:33:16;;;;;;;3.30;2.33;;;26.70;97.80;;;;;;5066374;28;20055;-49
2022/06/30 08:35:42;;;;;;;3.28;2.50;;;27.00;97.20;;;;;;5052657;28;20021;-50
2022/06/30 08:38:07;;;;;;;5.20;2.13;;;27.10;96.40;;;;;;5067557;28;20024;-51
2022/06/30 08:43:19;;;;;;;2.88;2.55;;;27.10;95.60;;;;;;5059929;28;20090;-49
2022/06/30 08:45:45;;;;;;;3.05;2.72;;;27.20;95.00;;;;;;5070312;28;20559;-54
2022/06/30 08:48:12;;;;;;;3.92;2.72;;;27.20;95.00;;;;;;5065145;28;20506;-49
2022/06/30 08:50:42;;;;;;;4.97;2.40;;;27.30;94.60;;;;;;5068344;28;20032;-54
2022/06/30 08:53:09;;;;;;;3.28;2.38;;;27.20;93.90;;;;;;5070307;28;20029;-51
2022/06/30 08:55:36;;;;;;;3.83;2.03;;;27.30;94.60;;;;;;5076973;28;20396;-51
2022/06/30 08:58:07;;;;;;;3.53;2.10;;;27.50;94.50;;;;;;5068873;28;20090;-52
2022/06/30 09:00:35;;;;;;;4.15;2.25;;;27.70;93.90;;;;;;5069206;28;20028;-54
2022/06/30 09:03:04;;;;;;;2.75;2.00;;;27.90;92.80;;;;;;5068734;28;20040;-51
2022/06/30 09:05:31;;;;;;;4.18;2.00;;;27.90;93.00;;;;;;5077008;28;20471;-50
2022/06/30 09:07:57;;;;;;;2.42;2.22;;;28.10;92.80;;;;;;5068749;28;20032;-52
2022/06/30 09:10:25;;;;;;;2.85;2.13;;;28.20;93.30;;;;;;5055670;28;20024;-52
2022/06/30 09:12:57;;;;;;;2.40;2.20;;;28.30;92.70;;;;;;5069867;28;20047;-50
2022/06/30 09:15:23;;;;;;;2.45;2.05;;;28.40;91.60;;;;;;5074683;28;20021;-51
2022/06/30 09:17:48;;;;;;;2.75;1.85;;;28.30;90.90;;;;;;5069696;28;20028;-51
2022/06/30 09:20:14;;;;;;;2.75;1.80;;;28.30;90.40;;;;;;5069447;28;20021;-51
2022/06/30 09:22:41;;;;;;;3.60;1.75;;;28.30;90.90;;;;;;5067260;28;20036;-48
2022/06/30 09:25:11;;;;;;;2.45;2.00;;;28.30;90.50;;;;;;5067449;28;20028;-51
2022/06/30 09:27:42;;;;;;;2.20;1.80;;;28.40;92.30;;;;;;5049359;28;20491;-49
2022/06/30 09:30:12;;;;;;;3.03;2.10;;;28.50;90.80;;;;;;5061570;28;20024;-50
2022/06/30 09:33:07;;;;;;;4.45;1.77;;;28.70;90.30;;;;;;5073041;28;20108;-49
2022/06/30 09:35:32;;;;;;;3.33;2.00;;;28.70;88.30;;;;;;5054163;28;20075;-52
2022/06/30 09:37:58;;;;;;;2.28;1.75;;;28.80;87.30;;;;;;5071920;28;20024;-50
2022/06/30 09:41:02;;;;;;;2.58;1.92;;;28.80;87.70;;;;;;5069060;28;20021;-49
2022/06/30 09:43:35;;;;;;;1.92;1.60;;;28.90;87.00;;;;;;5062481;28;20100;-49
2022/06/30 09:46:00;;;;;;;1.83;1.67;;;28.70;84.50;;;;;;5068887;28;20020;-51
2022/06/30 09:48:28;;;;;;;3.35;2.10;;;28.70;85.20;;;;;;5060628;28;20085;-52
2022/06/30 09:50:58;;;;;;;1.98;1.50;;;28.50;84.80;;;;;;5078775;28;20032;-54
2022/06/30 09:53:24;;;;;;;2.67;2.00;;;28.60;85.40;;;;;;5065917;28;20017;-51
2022/06/30 09:55:50;;;;;;;1.73;1.63;;;28.30;82.40;;;;;;5077680;28;20111;-52
2022/06/30 09:58:35;;;;;;;2.45;1.85;;;28.00;85.60;;;;;;5061290;28;20025;-51
2022/06/30 10:01:01;;;;;;;2.85;1.77;;;28.10;85.40;;;;;;5051013;28;20024;-49
2022/06/30 10:03:27;;;;;;;1.85;1.75;;;28.20;85.90;;;;;;5065369;28;20033;-50
2022/06/30 10:06:10;;;;;;;2.67;2.00;;;28.40;85.00;;;;;;5068296;28;20031;-54
2022/06/30 10:08:36;;;;;;;2.35;2.08;;;28.40;84.20;;;;;;5064783;28;20025;-54
2022/06/30 10:11:02;;;;;;;5.38;2.35;;;28.40;84.30;;;;;;5067449;28;20024;-53
2022/06/30 10:13:29;;;;;;;2.90;1.80;;;28.30;85.60;;;;;;5063505;28;20025;-52
2022/06/30 10:15:56;;;;;;;2.42;1.90;;;28.30;85.00;;;;;;5063676;28;20044;-49
2022/06/30 10:18:26;;;;;;;3.72;2.45;;;28.30;86.70;;;;;;5069097;28;20088;-52
2022/06/30 10:20:52;;;;;;;2.03;1.65;;;28.30;85.60;;;;;;5065482;28;20046;-50
2022/06/30 10:23:22;;;;;;;2.67;1.98;;;28.20;85.30;;;;;;5068867;28;20020;-51
2022/06/30 10:25:49;;;;;;;2.05;1.90;;;28.10;87.00;;;;;;5064753;28;20025;-49
2022/06/30 10:28:19;;;;;;;4.60;2.40;;;28.10;87.90;;;;;;5081416;28;20016;-53
2022/06/30 10:30:54;;;;;;;3.95;2.17;;;28.10;85.60;;;;;;5067478;28;20047;-51
2022/06/30 10:33:43;;;;;;;1.80;1.70;;;28.00;86.40;;;;;;5064684;28;20070;-51
2022/06/30 10:36:16;;;;;;;2.53;2.25;;;28.00;86.80;;;;;;5068399;28;20029;-55
2022/06/30 10:39:07;;;;;;;2.78;2.30;;;28.00;85.90;;;;;;5065290;28;20056;-52
2022/06/30 10:41:47;;;;;;;2.45;2.22;;;27.90;87.90;;;;;;5056956;28;20083;-52
2022/06/30 10:44:16;;;;;;;2.10;1.90;;;28.00;87.10;;;;;;5074912;28;20020;-50
2022/06/30 10:46:45;;;;;;;3.20;2.05;;;27.80;86.90;;;;;;5064012;28;20025;-50
2022/06/30 10:49:12;;;;;;;3.63;2.08;;;28.00;87.50;;;;;;5065823;28;20028;-49
2022/06/30 10:51:38;;;;;;;3.75;2.33;;;27.90;86.90;;;;;;5068381;28;20126;-52
2022/06/30 10:54:06;;;;;;;2.40;2.20;;;28.00;88.00;;;;;;5067896;28;20016;-49
2022/06/30 10:56:49;;;;;;;3.78;2.35;;;28.10;88.00;;;;;;5061726;28;20258;-52
2022/06/30 10:59:16;;;;;;;3.05;2.58;;;28.20;87.70;;;;;;5060515;28;20055;-51
2022/06/30 11:02:00;;;;;;;2.78;2.15;;;28.20;86.60;;;;;;5068505;28;20029;-50
2022/06/30 11:04:26;;;;;;;2.28;2.15;;;28.20;84.60;;;;;;5062168;28;20036;-50
2022/06/30 11:07:11;;;;;;;4.38;2.25;;;27.90;85.50;;;;;;5069104;28;20493;-53
2022/06/30 11:09:49;;;;;;;4.20;2.20;;;27.80;86.30;;;;;;5063877;28;20066;-51
2022/06/30 11:12:17;;;;;;;2.05;1.90;;;27.80;87.00;;;;;;5066364;28;20103;-55
2022/06/30 11:14:50;;;;;;;3.22;1.90;;;27.90;87.20;;;;;;5062948;28;20320;-52
2022/06/30 11:17:21;;;;;;;2.58;2.33;;;28.10;87.20;;;;;;5065061;28;20047;-50
2022/06/30 11:19:48;;;;;;;2.13;1.92;;;28.00;87.80;;;;;;5068555;28;20032;-50
2022/06/30 11:22:16;;;;;;;3.67;2.30;;;28.00;87.40;;;;;;5063822;28;20111;-53
2022/06/30 11:24:47;;;;;;;4.68;2.83;;;28.10;88.00;;;;;;5068468;28;20131;-49
2022/06/30 11:27:24;;;;;;;2.35;2.08;;;28.10;87.90;;;;;;5061409;28;20029;-55
2022/06/30 11:29:57;;;;;;;1.80;1.70;;;28.30;88.90;;;;;;5068440;28;20020;-53
2022/06/30 11:32:24;;;;;;;2.30;2.10;;;28.40;87.30;;;;;;5065147;28;20107;-51
2022/06/30 11:34:50;;;;;;;4.05;2.20;;;28.50;86.80;;;;;;5067486;28;20123;-49
2022/06/30 11:37:22;;;;;;;4.03;2.28;;;28.60;88.00;;;;;;5065053;28;20108;-52
2022/06/30 11:40:06;;;;;;;2.35;2.25;;;28.70;85.50;;;;;;5061122;28;20050;-53
2022/06/30 11:42:32;;;;;;;3.13;2.53;;;28.80;87.00;;;;;;5058608;28;20025;-50
2022/06/30 11:44:59;;;;;;;2.63;2.42;;;28.90;85.10;;;;;;5062492;28;20028;-53
2022/06/30 11:47:28;;;;;;;2.80;2.60;;;29.00;86.30;;;;;;5063656;28;20088;-54
2022/06/30 11:49:58;;;;;;;3.65;2.45;;;29.10;86.00;;;;;;5064313;28;20558;-53
2022/06/30 11:52:37;;;;;;;2.88;2.58;;;29.20;86.60;;;;;;5067820;28;20086;-50
2022/06/30 11:55:06;;;;;;;4.65;2.40;;;29.20;83.30;;;;;;5074614;28;20028;-52
2022/06/30 11:57:34;;;;;;;2.33;2.13;;;29.20;84.20;;;;;;5068241;28;20025;-51
2022/06/30 12:00:12;;;;;;;3.33;2.75;;;29.20;85.70;;;;;;5064497;28;20050;-56
2022/06/30 12:02:39;;;;;;;2.60;2.40;;;29.30;84.70;;;;;;5067963;28;20151;-51
2022/06/30 12:05:09;;;;;;;2.78;2.58;;;29.30;85.20;;;;;;5062236;28;20040;-51
2022/06/30 12:07:35;;;;;;;2.75;2.55;;;29.50;84.50;;;;;;5068233;28;20060;-50
2022/06/30 12:10:02;;;;;;;2.85;2.33;;;29.70;85.60;;;;;;5056705;28;20047;-54
2022/06/30 12:12:29;;;;;;;3.53;2.50;;;29.90;84.10;;;;;;5053336;28;20201;-53
2022/06/30 12:15:00;;;;;;;2.55;2.25;;;30.00;84.40;;;;;;5065480;28;20032;-52
2022/06/30 12:17:34;;;;;;;2.35;2.15;;;29.90;83.30;;;;;;5069654;28;20081;-50
2022/06/30 12:20:00;;;;;;;3.50;2.72;;;29.90;83.80;;;;;;5070693;28;20111;-51
2022/06/30 12:22:26;;;;;;;5.90;2.33;;;30.00;83.60;;;;;;5068458;28;20056;-52
2022/06/30 12:24:52;;;;;;;4.20;2.97;;;30.00;83.60;;;;;;5071339;28;20097;-51
2022/06/30 12:27:46;;;;;;;2.47;2.28;;;29.90;82.20;;;;;;5064522;28;20068;-52
2022/06/30 12:30:14;;;;;;;11.80;3.05;;;30.00;82.60;;;;;;5070013;28;20032;-49
2022/06/30 12:32:40;;;;;;;8.63;2.83;;;30.10;83.00;;;;;;5069964;28;20078;-49
2022/06/30 12:35:09;;;;;;;3.75;2.72;;;30.10;83.50;;;;;;5063778;28;20020;-52
2022/06/30 12:37:38;;;;;;;4.10;2.00;;;30.10;82.90;;;;;;5078121;28;20024;-51
2022/06/30 12:40:08;;;;;;;7.68;3.28;;;30.10;81.90;;;;;;5077319;28;20513;-52
2022/06/30 12:42:45;;;;;;;6.18;2.97;;;30.00;81.40;;;;;;5083326;28;20103;-53
2022/06/30 12:45:35;;;;;;;3.15;2.67;;;29.80;82.10;;;;;;5080897;28;20020;-51
2022/06/30 12:48:03;;;;;;;5.68;2.75;;;29.80;83.40;;;;;;5071081;28;20344;-51
2022/06/30 12:50:34;;;;;;;6.57;2.80;;;29.80;83.00;;;;;;5067099;28;20090;-52
2022/06/30 12:53:19;;;;;;;2.70;2.50;;;29.70;81.60;;;;;;5070235;28;20491;-53
2022/06/30 12:56:01;;;;;;;2.83;2.25;;;29.70;83.10;;;;;;5066800;28;20020;-52
2022/06/30 12:58:46;;;;;;;5.53;2.45;;;29.60;82.70;;;;;;5064282;28;20025;-54
2022/06/30 13:01:16;;;;;;;2.38;2.17;;;29.70;84.60;;;;;;5059747;28;20025;-55